Time;durP1;ratioP1;P1;durP2;ratioP2;P2;SDS_P1;SDS_P2;PMS_P1;PMS_P2;Temp;Humidity;BMP_temperature;BMP_pressure;BME280_temperature;BME280_humidity;BME280_pressure;Samples;Min_cycle;Max_cycle;Signal;HPM_P1;HPM_P2
2022/12/30 00:00:23;;;;;;;4.00;1.85;;;;;;;4.86;95.57;100924.34;4951356;29;20032;-96
2022/12/30 00:05:43;;;;;;;8.52;1.75;;;;;;;4.84;95.89;100927.75;4959334;28;20047;-96
2022/12/30 00:11:20;;;;;;;5.95;1.90;;;;;;;4.82;96.00;100944.88;4955268;29;20683;-96
2022/12/30 00:34:06;;;;;;;5.00;1.60;;;;;;;4.65;96.12;100958.41;4978102;29;20043;-96
2022/12/30 00:36:32;;;;;;;5.30;1.70;;;;;;;4.63;96.21;100963.53;4974737;29;20126;-96
2022/12/30 00:39:07;;;;;;;3.27;1.50;;;;;;;4.67;96.26;100963.59;4971823;29;20495;-96
2022/12/30 00:44:42;;;;;;;6.00;1.90;;;;;;;4.59;96.35;100956.63;4974242;29;20106;-96
2022/12/30 00:47:09;;;;;;;3.90;1.70;;;;;;;4.64;96.53;100966.97;4970439;29;20027;-96
2022/12/30 00:57:56;;;;;;;5.90;2.10;;;;;;;4.58;96.84;100954.91;4968544;29;20045;-96
2022/12/30 01:00:22;;;;;;;5.25;1.92;;;;;;;4.55;96.68;100952.31;4970170;29;20070;-96
2022/12/30 01:03:01;;;;;;;5.45;1.80;;;;;;;4.54;96.93;100952.28;4971726;29;20027;-96
2022/12/30 01:05:41;;;;;;;3.85;1.60;;;;;;;4.53;96.81;100958.25;4974474;29;20038;-96
2022/12/30 01:08:26;;;;;;;5.03;1.70;;;;;;;4.51;96.76;100965.09;4969830;29;20051;-96
2022/12/30 01:10:52;;;;;;;3.03;1.60;;;;;;;4.53;96.64;100972.00;4954607;29;20060;-96
2022/12/30 01:13:29;;;;;;;6.68;1.80;;;;;;;4.50;96.86;100971.09;4953758;29;20027;-96
2022/12/30 01:15:55;;;;;;;3.30;1.83;;;;;;;4.48;97.07;100968.50;4936348;28;20087;-96
2022/12/30 01:18:20;;;;;;;5.68;1.70;;;;;;;4.48;97.08;100968.50;4929040;29;20083;-96
2022/12/30 01:20:47;;;;;;;4.82;1.60;;;;;;;4.48;96.84;100973.63;4932133;29;20038;-96
2022/12/30 01:23:22;;;;;;;2.83;1.67;;;;;;;4.44;96.74;100974.47;4941771;28;20035;-96
2022/12/30 01:25:48;;;;;;;4.03;1.60;;;;;;;4.43;97.00;100977.88;4937199;28;20035;-96
2022/12/30 01:28:13;;;;;;;4.43;1.60;;;;;;;4.39;97.03;100976.09;4941176;28;20092;-96
2022/12/30 01:30:38;;;;;;;5.50;1.83;;;;;;;4.36;97.38;100971.78;4938423;28;20084;-96
2022/12/30 01:33:13;;;;;;;5.47;1.98;;;;;;;4.38;97.27;100985.53;4936389;29;20020;-96
2022/12/30 01:35:39;;;;;;;4.88;1.85;;;;;;;4.35;97.10;100992.31;4940627;28;20023;-96
2022/12/30 01:38:04;;;;;;;6.55;1.88;;;;;;;4.32;97.44;100995.72;4952215;28;20016;-96
2022/12/30 01:40:41;;;;;;;4.20;1.60;;;;;;;4.29;97.69;100990.53;4960771;28;20016;-96
2022/12/30 01:43:15;;;;;;;2.95;1.40;;;;;;;4.30;97.51;101002.53;4960928;28;20091;-96
2022/12/30 01:52:07;;;;;;;2.42;1.48;;;;;;;4.26;97.64;101005.91;4952244;29;20059;-96
2022/12/30 01:54:44;;;;;;;3.95;1.65;;;;;;;4.27;97.62;101016.19;4950271;29;20020;-96
2022/12/30 01:57:10;;;;;;;2.95;1.65;;;;;;;4.21;98.39;101004.97;4950254;29;20051;-96
2022/12/30 01:59:37;;;;;;;4.85;2.00;;;;;;;4.20;98.08;101009.28;4944998;29;20389;-96
2022/12/30 02:02:13;;;;;;;4.30;1.42;;;;;;;4.21;98.00;101015.25;4944851;29;20028;-96
2022/12/30 02:04:39;;;;;;;4.03;1.63;;;;;;;4.20;98.01;101011.84;4950116;29;20027;-96
2022/12/30 02:07:19;;;;;;;6.35;1.80;;;;;;;4.18;97.92;101011.78;4949204;29;20043;-96
2022/12/30 02:09:56;;;;;;;3.55;1.42;;;;;;;4.16;97.77;100999.78;4969402;23;20027;-96
2022/12/30 02:12:22;;;;;;;4.25;1.85;;;;;;;4.18;97.87;100995.53;4971455;29;20023;-96
2022/12/30 02:14:50;;;;;;;8.70;2.22;;;;;;;4.19;97.85;100989.56;4971299;29;20027;-96
2022/12/30 02:17:51;;;;;;;5.00;2.00;;;;;;;4.23;97.90;100998.16;4973850;29;20035;-96
2022/12/30 02:20:55;;;;;;;4.80;1.83;;;;;;;4.18;98.28;100980.97;4976168;29;20057;-96
2022/12/30 02:23:39;;;;;;;7.53;1.80;;;;;;;4.15;97.93;100978.38;4980443;28;20047;-96
2022/12/30 02:26:50;;;;;;;4.65;1.85;;;;;;;4.22;97.79;100983.59;4978660;28;20042;-96
2022/12/30 02:30:03;;;;;;;4.57;1.63;;;;;;;4.20;97.82;100981.00;4982048;28;20019;-96
2022/12/30 02:35:25;;;;;;;8.52;2.20;;;;;;;4.20;97.74;100980.13;5185120;23;20059;-96
2022/12/30 02:38:22;;;;;;;5.15;1.80;;;;;;;4.20;98.00;100978.44;4999688;28;20058;-96
2022/12/30 02:46:44;;;;;;;3.72;1.70;;;;;;;4.15;98.04;100973.25;4998715;28;20049;-96
2022/12/30 02:49:22;;;;;;;;;;;;;;;;;;;;;
2022/12/30 02:54:42;;;;;;;2.57;1.37;;;;;;;4.09;97.92;100954.31;4992587;28;20042;-96
2022/12/30 02:57:35;;;;;;;3.25;1.60;;;;;;;4.08;97.80;100952.59;4993607;28;20460;-96
2022/12/30 03:06:19;;;;;;;;;;;;;;;4.02;98.14;100932.81;4992131;28;20045;-96
2022/12/30 03:08:53;;;;;;;2.55;1.33;;;;;;;3.99;97.99;100943.94;4971299;29;19947;-96
2022/12/30 03:11:20;;;;;;;2.60;1.40;;;;;;;3.93;98.01;100936.13;4970807;28;20116;-96
2022/12/30 03:14:15;;;;;;;4.32;1.65;;;;;;;3.93;98.31;100940.41;4973316;29;20015;-96
2022/12/30 03:17:01;;;;;;;6.50;1.80;;;;;;;3.94;97.88;100950.69;4970723;29;20035;-96
2022/12/30 03:19:36;;;;;;;4.80;1.70;;;;;;;3.89;98.13;100949.75;4972501;29;20038;-96
2022/12/30 03:22:02;;;;;;;3.95;1.50;;;;;;;3.85;98.27;100946.28;4971976;29;20031;-96
2022/12/30 03:27:23;;;;;;;5.80;1.80;;;;;;;3.85;98.59;100936.00;4976041;29;20083;-96
2022/12/30 03:30:06;;;;;;;5.47;1.77;;;;;;;3.89;98.18;100941.19;4972769;28;20046;-96
2022/12/30 03:32:44;;;;;;;5.38;1.90;;;;;;;3.85;98.34;100940.31;4973244;29;20079;-96
2022/12/30 03:35:09;;;;;;;5.40;1.83;;;;;;;3.85;98.15;100942.88;4974523;29;20496;-96
2022/12/30 03:37:56;;;;;;;5.60;1.40;;;;;;;3.83;98.03;100931.72;4976478;29;20023;-96
2022/12/30 03:40:47;;;;;;;;;;;;;;;;;;;;;
2022/12/30 03:43:14;;;;;;;3.00;1.60;;;;;;;3.74;98.50;100932.44;4969963;29;20070;-96
2022/12/30 03:45:40;;;;;;;4.50;1.40;;;;;;;3.71;98.18;100938.38;4972492;29;20031;-96
2022/12/30 03:48:05;;;;;;;6.70;1.80;;;;;;;3.69;98.27;100940.06;4976179;29;20035;-96
2022/12/30 03:50:31;;;;;;;4.00;1.50;;;;;;;3.68;98.29;100938.34;4973811;29;20058;-96
2022/12/30 03:53:08;;;;;;;5.70;1.80;;;;;;;3.70;98.22;100953.78;4972343;29;20031;-96
2022/12/30 03:55:34;;;;;;;5.70;2.08;;;;;;;3.64;98.47;100940.84;4981086;28;20070;-96
2022/12/30 03:58:00;;;;;;;4.95;1.85;;;;;;;3.63;98.52;100941.69;4994616;28;20029;-96
2022/12/30 04:00:25;;;;;;;5.38;1.90;;;;;;;3.58;98.79;100946.75;4990265;28;20019;-96
2022/12/30 04:03:09;;;;;;;7.53;2.00;;;;;;;3.54;98.44;100940.72;4995824;28;20046;-96
2022/12/30 04:05:42;;;;;;;8.73;2.33;;;;;;;3.57;97.88;100945.00;4996850;28;20033;-96
2022/12/30 04:08:08;;;;;;;6.63;2.10;;;;;;;3.55;98.56;100946.69;4997465;28;20043;-96
2022/12/30 04:10:33;;;;;;;8.85;2.50;;;;;;;3.49;98.82;100937.19;4996889;28;20023;-96
2022/12/30 04:12:59;;;;;;;4.35;1.90;;;;;;;3.48;98.60;100948.31;4994789;28;20107;-96
2022/12/30 04:15:26;;;;;;;7.88;2.17;;;;;;;3.47;98.67;100949.16;4994646;28;20039;-96
2022/12/30 04:18:06;;;;;;;7.32;2.05;;;;;;;3.45;98.60;100949.94;4997519;28;20014;-96
2022/12/30 04:20:31;;;;;;;11.25;2.50;;;;;;;3.50;98.49;100953.47;4996384;28;20078;-96
2022/12/30 04:22:58;;;;;;;7.03;2.20;;;;;;;3.42;98.99;100961.03;4995712;28;20030;-96
2022/12/30 04:25:36;;;;;;;6.68;2.05;;;;;;;3.41;99.12;100961.88;4996654;28;20030;-96
2022/12/30 04:28:02;;;;;;;7.60;2.08;;;;;;;3.41;99.27;100964.44;4996767;28;20026;-96
2022/12/30 04:30:27;;;;;;;5.50;1.83;;;;;;;3.40;99.63;100952.44;4996700;28;20087;-96
2022/12/30 04:32:53;;;;;;;3.97;1.80;;;;;;;3.38;98.99;100942.19;4996142;28;20015;-96
2022/12/30 04:35:19;;;;;;;5.13;1.80;;;;;;;3.37;99.24;100944.72;4995696;28;20130;-96
2022/12/30 04:37:47;;;;;;;9.75;2.22;;;;;;;3.40;98.94;100944.75;4999463;28;20018;-96
2022/12/30 04:40:15;;;;;;;6.43;2.10;;;;;;;3.41;99.17;100946.47;4997856;28;20007;-96
2022/12/30 04:42:41;;;;;;;5.40;1.90;;;;;;;3.37;99.48;100942.16;4997533;28;20026;-96
2022/12/30 04:45:34;;;;;;;4.45;2.00;;;;;;;3.37;99.79;100948.16;4997536;28;20035;-96
2022/12/30 04:47:59;;;;;;;6.57;2.13;;;;;;;3.33;99.74;100946.34;4996016;28;20062;-96
2022/12/30 04:53:18;;;;;;;6.00;2.00;;;;;;;3.33;100.00;100945.50;4998136;28;20041;-96
2022/12/30 04:55:44;;;;;;;6.53;2.10;;;;;;;3.33;100.00;100945.50;5048321;23;20051;-96
2022/12/30 04:58:10;;;;;;;3.05;1.80;;;;;;;3.27;100.00;100941.13;4998812;28;20023;-96
2022/12/30 05:00:45;;;;;;;6.35;2.13;;;;;;;3.27;100.00;100940.25;4999117;28;20022;-96
2022/12/30 05:03:17;;;;;;;7.27;1.87;;;;;;;3.28;99.83;100935.19;4998695;28;20042;-96
2022/12/30 05:05:43;;;;;;;7.47;2.20;;;;;;;3.30;100.00;100930.06;4997705;28;20325;-96
2022/12/30 05:08:21;;;;;;;6.50;2.22;;;;;;;3.29;99.66;100928.31;4997324;28;20023;-96
2022/12/30 05:10:47;;;;;;;6.85;2.20;;;;;;;3.29;99.87;100925.75;4998206;28;20031;-96
2022/12/30 05:13:35;;;;;;;6.95;2.45;;;;;;;3.29;99.97;100934.34;4997909;28;20022;-96
2022/12/30 05:16:03;;;;;;;7.90;2.42;;;;;;;3.26;99.93;100923.16;4978127;29;20087;-96
2022/12/30 05:18:29;;;;;;;8.35;2.17;;;;;;;3.25;99.94;100929.97;4978041;28;20090;-96
2022/12/30 05:20:54;;;;;;;7.32;2.53;;;;;;;3.22;100.00;100914.53;4978739;29;20023;-96
2022/12/30 05:26:13;;;;;;;7.70;2.70;;;;;;;3.26;100.00;100921.44;4979436;28;20029;-96
2022/12/30 05:28:49;;;;;;;5.35;2.15;;;;;;;3.18;100.00;100921.31;4979346;28;20051;-96
2022/12/30 05:36:26;;;;;;;7.70;2.45;;;;;;;3.21;100.00;100912.81;4974761;28;20051;-96
2022/12/30 05:38:52;;;;;;;9.85;2.20;;;;;;;3.27;100.00;100919.75;4978667;28;20015;-96
2022/12/30 05:44:43;;;;;;;9.73;2.40;;;;;;;3.34;100.00;100935.25;4937408;28;20085;-96
2022/12/30 05:47:08;;;;;;;10.30;2.63;;;;;;;3.36;100.00;100932.72;4939681;28;20027;-97
2022/12/30 05:49:43;;;;;;;6.90;2.25;;;;;;;3.32;100.00;100923.25;4940384;29;20036;-96
2022/12/30 05:52:14;;;;;;;5.03;2.08;;;;;;;3.32;100.00;100923.25;4939454;29;20028;-96
2022/12/30 05:59:50;;;;;;;8.52;2.00;;;;;;;3.38;100.00;100911.38;5098464;23;20039;-96
2022/12/30 06:02:27;;;;;;;6.45;2.00;;;;;;;3.33;100.00;100924.97;4978767;29;20031;-96
2022/12/30 06:05:25;;;;;;;7.60;2.35;;;;;;;3.37;100.00;100921.63;4977488;28;20039;-96
2022/12/30 06:07:50;;;;;;;9.93;2.40;;;;;;;3.36;100.00;100927.59;4977823;29;20392;-96
2022/12/30 06:10:16;;;;;;;4.75;2.00;;;;;;;3.33;100.00;100924.97;4977115;28;20099;-96
2022/12/30 06:12:51;;;;;;;5.40;2.10;;;;;;;3.30;100.00;100909.53;4978330;28;20086;-96
2022/12/30 06:21:38;;;;;;;11.43;2.50;;;;;;;3.42;100.00;100898.63;5919449;23;20022;-96
2022/12/30 06:24:06;;;;;;;11.13;2.58;;;;;;;3.32;100.00;100889.91;4977661;29;20133;-96
2022/12/30 06:26:32;;;;;;;4.20;1.90;;;;;;;3.32;100.00;100892.47;4978002;28;20020;-96
2022/12/30 06:29:25;;;;;;;10.87;2.40;;;;;;;3.37;100.00;100896.84;5224492;23;20043;-96
2022/12/30 06:31:50;;;;;;;4.78;2.30;;;;;;;3.36;100.00;100889.97;4996783;28;20094;-96
2022/12/30 06:42:22;;;;;;;9.32;2.28;;;;;;;3.38;100.00;100897.69;5830367;23;20035;-96
2022/12/30 06:44:47;;;;;;;;;;;;;;;3.39;100.00;100884.91;4977213;28;20087;-96
2022/12/30 06:47:13;;;;;;;6.93;2.20;;;;;;;3.37;100.00;100870.31;4980715;28;19922;-96
2022/12/30 07:04:23;;;;;;;10.95;3.25;;;;;;;3.57;100.00;100834.66;5136733;23;20103;-96
2022/12/30 07:14:40;;;;;;;10.80;2.83;;;;;;;3.56;100.00;100807.28;5241288;23;20056;-96
2022/12/30 07:22:16;;;;;;;7.30;3.00;;;;;;;3.62;100.00;100812.50;5153848;23;20069;-91
2022/12/30 07:24:53;;;;;;;11.55;3.20;;;;;;;3.72;100.00;100803.19;4978136;28;20065;-94
2022/12/30 07:27:18;;;;;;;10.30;3.10;;;;;;;3.66;100.00;100810.84;5020962;23;20079;-92
2022/12/30 07:29:43;;;;;;;7.28;2.78;;;;;;;3.62;100.00;100807.38;4958420;29;20051;-92
2022/12/30 07:32:10;;;;;;;6.97;2.70;;;;;;;3.62;100.00;100806.50;4957935;29;20019;-92
2022/12/30 07:34:36;;;;;;;7.28;2.80;;;;;;;3.76;100.00;100798.97;4959119;29;20059;-94
2022/12/30 07:37:02;;;;;;;12.82;2.80;;;;;;;3.68;100.00;100786.91;4958116;29;20034;-93
2022/12/30 07:39:29;;;;;;;9.52;2.90;;;;;;;3.66;100.00;100775.75;4958435;29;20019;-93
2022/12/30 07:41:54;;;;;;;6.72;2.50;;;;;;;3.67;100.00;100776.63;4958273;29;20054;-93
2022/12/30 07:44:20;;;;;;;5.65;2.35;;;;;;;3.64;100.00;100758.59;4957913;29;20051;-93
2022/12/30 07:46:45;;;;;;;6.78;2.40;;;;;;;3.72;100.00;100774.94;4957895;29;20423;-93
2022/12/30 07:49:10;;;;;;;9.98;2.60;;;;;;;3.69;100.00;100762.09;4957451;29;20027;-93
2022/12/30 07:51:36;;;;;;;6.50;2.58;;;;;;;3.71;100.00;100752.72;4957692;29;20082;-93
2022/12/30 07:54:01;;;;;;;9.70;2.42;;;;;;;3.77;100.00;100755.34;4957397;29;20020;-93
2022/12/30 07:56:26;;;;;;;7.00;2.40;;;;;;;3.76;100.00;100747.63;4957281;29;20023;-93
2022/12/30 07:58:55;;;;;;;7.40;2.53;;;;;;;3.73;100.00;100739.91;4956609;28;20376;-94
2022/12/30 08:01:21;;;;;;;9.35;2.70;;;;;;;3.83;100.00;100731.44;4957424;29;20030;-95
2022/12/30 08:03:46;;;;;;;7.07;2.30;;;;;;;3.88;100.00;100731.50;4950547;29;20016;-92
2022/12/30 08:06:14;;;;;;;6.60;2.63;;;;;;;3.84;100.00;100723.75;4937916;29;20024;-93
2022/12/30 08:08:40;;;;;;;5.40;2.17;;;;;;;3.86;100.00;100727.19;4938061;29;20032;-93
2022/12/30 08:11:08;;;;;;;8.32;2.10;;;;;;;3.94;100.00;100723.88;4938380;29;20369;-93
2022/12/30 08:13:35;;;;;;;4.85;2.47;;;;;;;3.88;100.00;100716.97;4940682;28;20106;-92
2022/12/30 08:16:05;;;;;;;7.85;2.58;;;;;;;3.96;100.00;100717.03;4938165;29;20028;-94
2022/12/30 08:18:31;;;;;;;6.07;2.50;;;;;;;4.00;100.00;100714.50;4938232;29;20027;-94
2022/12/30 08:21:08;;;;;;;6.40;2.30;;;;;;;3.99;100.00;100712.81;4938613;29;20039;-93
2022/12/30 08:23:34;;;;;;;5.88;2.50;;;;;;;4.08;100.00;100712.00;4938956;29;20484;-94
2022/12/30 08:26:09;;;;;;;7.25;2.38;;;;;;;4.09;100.00;100702.59;4938353;29;20083;-94
2022/12/30 08:28:34;;;;;;;5.97;2.28;;;;;;;4.12;100.00;100706.06;4937975;29;20080;-91
2022/12/30 08:31:11;;;;;;;9.13;2.97;;;;;;;4.22;100.00;100709.59;4950966;29;20031;-89
2022/12/30 08:33:37;;;;;;;6.22;2.47;;;;;;;4.25;100.00;100703.59;4956244;29;20050;-92
2022/12/30 08:36:07;;;;;;;7.70;2.40;;;;;;;4.48;100.00;100704.66;4956465;29;20067;-89
2022/12/30 08:38:35;;;;;;;7.80;2.60;;;;;;;4.40;100.00;100700.28;4956635;29;20051;-89
2022/12/30 08:41:14;;;;;;;8.70;2.70;;;;;;;4.55;100.00;100685.00;4956596;29;20023;-86
2022/12/30 08:43:40;;;;;;;9.27;2.75;;;;;;;4.63;100.00;100685.91;4937902;29;20032;-96
2022/12/30 08:46:06;;;;;;;8.00;2.55;;;;;;;4.74;100.00;100688.53;4937434;29;20027;-96
2022/12/30 08:48:32;;;;;;;6.20;2.45;;;;;;;4.74;100.00;100680.81;4937425;29;20055;-95
2022/12/30 08:50:58;;;;;;;7.73;2.63;;;;;;;4.82;100.00;100674.88;4947327;29;20016;-94
2022/12/30 08:53:23;;;;;;;10.65;3.25;;;;;;;4.87;100.00;100678.31;4958532;29;20040;-94
2022/12/30 08:56:03;;;;;;;5.05;2.63;;;;;;;4.83;100.00;100666.31;4957142;29;20027;-92
2022/12/30 08:58:28;;;;;;;6.90;2.28;;;;;;;4.85;100.00;100659.44;4957794;28;20119;-93
2022/12/30 09:00:56;;;;;;;6.47;2.47;;;;;;;4.93;100.00;100655.22;4938753;29;20099;-93
2022/12/30 09:03:21;;;;;;;7.00;2.40;;;;;;;5.03;100.00;100649.25;4937439;29;20028;-93
2022/12/30 09:05:51;;;;;;;8.23;2.70;;;;;;;4.94;100.00;100651.81;4937713;29;20547;-94
2022/12/30 09:08:18;;;;;;;6.45;2.40;;;;;;;5.01;100.00;100650.97;4950760;29;20079;-94
2022/12/30 09:10:43;;;;;;;6.75;2.38;;;;;;;5.17;100.00;100640.75;4956823;29;20055;-95
2022/12/30 09:13:08;;;;;;;10.32;2.45;;;;;;;5.13;100.00;100631.28;4960011;29;20019;-92
2022/12/30 09:15:34;;;;;;;9.25;2.30;;;;;;;5.16;100.00;100634.72;4976124;28;20058;-94
2022/12/30 09:17:59;;;;;;;5.03;2.05;;;;;;;5.21;100.00;100627.91;4961764;29;20034;-94
2022/12/30 09:20:25;;;;;;;8.23;2.30;;;;;;;5.23;100.00;100623.63;4956386;29;20102;-92
2022/12/30 09:22:50;;;;;;;5.50;2.20;;;;;;;5.38;100.00;100615.06;4956541;29;20019;-95
2022/12/30 09:25:34;;;;;;;6.25;2.00;;;;;;;5.40;100.00;100622.78;4956200;29;20644;-93
2022/12/30 09:27:59;;;;;;;7.07;2.20;;;;;;;5.48;100.00;100622.81;4955933;29;20043;-93
2022/12/30 09:30:24;;;;;;;5.43;2.20;;;;;;;5.55;100.00;100624.53;4955960;29;20337;-93
2022/12/30 09:32:50;;;;;;;6.50;2.10;;;;;;;5.60;100.00;100612.53;4956015;29;20098;-94
2022/12/30 09:35:15;;;;;;;5.53;2.00;;;;;;;5.60;100.00;100611.66;4955995;29;20035;-93
2022/12/30 09:37:41;;;;;;;7.07;2.00;;;;;;;5.65;100.00;100612.53;4955643;29;20031;-92
2022/12/30 09:40:13;;;;;;;6.47;2.10;;;;;;;5.79;99.51;100604.81;4955881;29;20027;-93
2022/12/30 09:45:31;;;;;;;7.15;2.00;;;;;;;5.92;98.73;100601.41;4955780;29;20077;-92
2022/12/30 09:48:05;;;;;;;4.45;1.70;;;;;;;6.04;98.00;100592.84;4956431;29;20023;-90
2022/12/30 09:50:40;;;;;;;6.22;2.00;;;;;;;6.06;98.56;100585.97;4956283;29;20069;-92
2022/12/30 09:53:37;;;;;;;4.18;1.67;;;;;;;6.21;98.51;100581.66;4955599;29;20441;-91
2022/12/30 09:56:12;;;;;;;3.28;1.63;;;;;;;6.09;98.50;100575.66;4955893;29;20035;-93
2022/12/30 09:58:38;;;;;;;4.90;1.80;;;;;;;6.12;98.97;100582.53;4956229;29;20033;-90
2022/12/30 10:01:29;;;;;;;2.10;1.60;;;;;;;6.20;98.27;100564.47;4955815;29;20042;-92
2022/12/30 10:03:57;;;;;;;6.55;1.88;;;;;;;6.20;98.26;100555.03;4955914;29;20058;-91
2022/12/30 10:06:37;;;;;;;6.63;1.75;;;;;;;6.22;98.57;100550.72;4955302;29;20034;-92
2022/12/30 10:09:24;;;;;;;6.70;1.60;;;;;;;6.25;98.34;100547.31;4955949;29;20027;-91
2022/12/30 10:12:08;;;;;;;3.50;1.63;;;;;;;6.23;98.64;100542.13;4956026;29;20078;-93
2022/12/30 10:15:01;;;;;;;6.97;1.80;;;;;;;6.40;97.30;100539.50;4956053;29;20035;-94
2022/12/30 10:17:46;;;;;;;5.28;1.77;;;;;;;6.29;98.12;100534.41;4962395;29;20008;-92
2022/12/30 10:20:11;;;;;;;3.63;1.65;;;;;;;6.42;97.79;100517.19;4965660;28;20447;-91
2022/12/30 10:22:37;;;;;;;4.50;1.90;;;;;;;6.31;97.98;100494.00;4966889;29;20038;-92
2022/12/30 10:25:21;;;;;;;6.20;2.15;;;;;;;6.39;97.17;100493.13;4960201;29;20108;-91
2022/12/30 10:27:49;;;;;;;4.05;1.70;;;;;;;6.36;97.96;100480.25;4961581;29;20082;-91
2022/12/30 10:30:20;;;;;;;4.55;1.70;;;;;;;6.46;97.73;100477.66;4960945;29;20027;-92
2022/12/30 10:32:57;;;;;;;6.32;1.70;;;;;;;6.39;97.59;100483.66;4959799;29;20095;-94
2022/12/30 10:35:25;;;;;;;5.38;1.75;;;;;;;6.45;97.22;100481.09;4961584;29;20062;-91
2022/12/30 10:38:22;;;;;;;6.25;1.80;;;;;;;6.54;96.91;100464.69;4958832;29;20031;-89
2022/12/30 10:41:03;;;;;;;4.75;1.88;;;;;;;6.51;96.90;100451.84;4947240;29;20039;-89
2022/12/30 10:43:32;;;;;;;8.60;1.90;;;;;;;6.70;96.38;100449.16;4958999;29;20031;-90
2022/12/30 10:46:15;;;;;;;6.93;1.95;;;;;;;6.62;96.40;100429.44;4958497;29;20481;-90
2022/12/30 10:48:59;;;;;;;6.25;1.80;;;;;;;6.72;95.68;100435.38;4958772;29;20114;-89
2022/12/30 10:51:26;;;;;;;2.65;1.48;;;;;;;6.64;96.84;100421.69;4958607;29;20027;-89
2022/12/30 10:53:52;;;;;;;;;;;;;;;6.72;95.99;100407.00;4956031;29;20078;-89
2022/12/30 10:56:28;;;;;;;;;;;;;;;6.78;95.45;100400.94;4939663;29;19921;-89
2022/12/30 10:58:59;;;;;;;7.40;1.85;;;;;;;6.75;95.76;100395.84;4939732;29;19974;-89
2022/12/30 11:01:29;;;;;;;5.88;1.90;;;;;;;6.82;95.71;100386.31;4939003;29;20038;-90
2022/12/30 11:03:58;;;;;;;5.53;1.90;;;;;;;6.79;95.53;100372.59;4939598;29;20036;-90
2022/12/30 11:06:34;;;;;;;7.32;1.80;;;;;;;6.79;95.84;100364.84;4939266;29;20425;-90
2022/12/30 11:09:11;;;;;;;4.70;2.10;;;;;;;6.80;95.61;100365.69;4939293;29;20140;-89
2022/12/30 11:14:42;;;;;;;7.95;2.20;;;;;;;7.09;94.79;100341.41;4939661;29;20135;-91
2022/12/30 11:17:31;;;;;;;6.18;2.03;;;;;;;7.07;94.35;100327.66;4938992;29;20519;-90
2022/12/30 11:20:07;;;;;;;5.55;1.73;;;;;;;6.96;94.83;100327.72;4938959;29;20156;-89
2022/12/30 11:22:32;;;;;;;7.30;2.03;;;;;;;7.08;93.95;100335.38;4935290;29;20035;-89
2022/12/30 11:24:58;;;;;;;9.20;2.10;;;;;;;7.08;94.02;100319.88;4938736;29;20040;-91
2022/12/30 11:27:34;;;;;;;7.43;1.80;;;;;;;7.03;94.60;100295.88;4938809;29;20063;-89
2022/12/30 11:30:00;;;;;;;4.43;1.70;;;;;;;7.04;94.41;100284.66;4939130;29;20032;-90
2022/12/30 11:32:25;;;;;;;11.53;2.20;;;;;;;7.15;94.21;100281.97;4938745;29;20079;-91
2022/12/30 11:34:50;;;;;;;6.27;1.90;;;;;;;7.11;93.55;100270.84;4939134;29;20376;-91
2022/12/30 11:37:36;;;;;;;10.40;2.27;;;;;;;7.20;93.15;100267.31;4938917;29;20063;-89
2022/12/30 11:40:25;;;;;;;6.77;1.90;;;;;;;7.17;93.96;100250.97;4938814;29;20032;-89
2022/12/30 11:43:18;;;;;;;8.75;2.00;;;;;;;7.17;93.61;100240.66;4938610;29;20091;-90
2022/12/30 11:46:04;;;;;;;6.13;1.67;;;;;;;7.17;93.89;100236.34;4940982;29;20086;-90
2022/12/30 11:48:33;;;;;;;7.00;2.08;;;;;;;7.23;93.38;100231.13;4958040;29;20026;-90
2022/12/30 11:51:00;;;;;;;4.93;1.80;;;;;;;7.23;93.45;100223.38;4957727;29;20491;-90
2022/12/30 11:53:31;;;;;;;5.57;1.83;;;;;;;7.24;94.08;100214.75;4957653;29;20422;-90
2022/12/30 11:55:57;;;;;;;4.25;1.67;;;;;;;7.29;93.24;100214.72;4957530;29;20082;-91
2022/12/30 11:58:23;;;;;;;7.03;1.75;;;;;;;7.38;92.69;100201.69;4956796;29;20035;-91
2022/12/30 12:00:58;;;;;;;9.73;2.00;;;;;;;7.36;93.37;100189.69;4938663;29;20087;-89
2022/12/30 12:03:28;;;;;;;5.05;1.55;;;;;;;7.32;93.24;100186.28;4938289;29;20028;-90
2022/12/30 12:06:23;;;;;;;7.57;2.00;;;;;;;7.40;93.02;100160.38;4938322;29;20035;-90
2022/12/30 12:09:08;;;;;;;7.63;2.00;;;;;;;7.39;92.09;100148.34;4921993;29;20067;-90
2022/12/30 12:11:41;;;;;;;7.97;2.10;;;;;;;7.47;92.58;100145.66;4938593;29;20111;-89
2022/12/30 12:14:16;;;;;;;8.52;2.30;;;;;;;7.47;92.51;100137.91;4938134;29;20106;-90
2022/12/30 12:16:56;;;;;;;9.95;2.10;;;;;;;7.51;91.37;100148.19;4938202;29;20032;-90
2022/12/30 12:19:40;;;;;;;6.85;2.10;;;;;;;7.55;91.11;100125.75;4937652;29;20019;-90
2022/12/30 12:22:18;;;;;;;5.55;1.70;;;;;;;7.67;91.73;100130.72;4938133;29;20103;-91
2022/12/30 12:24:48;;;;;;;5.65;1.65;;;;;;;7.62;91.92;100124.75;4939061;29;20127;-90
2022/12/30 12:27:19;;;;;;;7.10;1.92;;;;;;;7.68;91.91;100108.31;4937609;29;20075;-91
2022/12/30 12:29:45;;;;;;;5.00;1.73;;;;;;;7.67;92.29;100099.75;4937498;29;20062;-91
2022/12/30 12:32:29;;;;;;;7.47;1.85;;;;;;;7.79;92.67;100093.50;4942723;29;20038;-91
2022/12/30 12:35:09;;;;;;;6.78;1.77;;;;;;;7.67;92.45;100096.28;4957019;29;20079;-91
2022/12/30 12:38:02;;;;;;;5.45;1.63;;;;;;;7.58;94.18;100082.66;4952252;29;20054;-91
2022/12/30 12:40:45;;;;;;;8.60;1.92;;;;;;;7.66;93.51;100068.75;4943675;29;20028;-92
2022/12/30 12:43:22;;;;;;;8.20;1.80;;;;;;;7.59;94.15;100060.28;4937848;29;20027;-92
2022/12/30 12:45:50;;;;;;;5.18;1.80;;;;;;;7.60;94.46;100054.19;4937740;29;20489;-94
2022/12/30 12:48:25;;;;;;;5.43;1.60;;;;;;;7.52;95.71;100051.75;4940342;29;20031;-94
2022/12/30 12:51:22;;;;;;;7.82;2.00;;;;;;;7.47;96.75;100029.47;4953732;29;20031;-94
2022/12/30 12:54:20;;;;;;;5.88;1.90;;;;;;;7.48;96.49;100019.13;4947102;29;20115;-92
2022/12/30 12:56:53;;;;;;;5.75;1.90;;;;;;;7.45;97.83;100016.56;4947578;29;20034;-91
2022/12/30 12:59:43;;;;;;;6.97;2.05;;;;;;;7.42;98.07;100006.31;4956653;29;20023;-94
2022/12/30 13:02:45;;;;;;;4.93;1.60;;;;;;;7.38;98.68;99984.84;4956562;29;20432;-91
2022/12/30 13:05:26;;;;;;;6.43;1.92;;;;;;;7.40;98.18;99965.00;4956118;29;20477;-94
2022/12/30 13:08:14;;;;;;;5.00;1.80;;;;;;;7.34;99.57;99952.22;4956161;29;20026;-94
2022/12/30 13:11:06;;;;;;;5.63;1.80;;;;;;;7.35;99.72;99930.69;4958016;29;20027;-94
2022/12/30 13:13:58;;;;;;;3.95;1.60;;;;;;;7.28;100.00;99917.91;4956635;29;20035;-93
2022/12/30 13:16:30;;;;;;;2.15;1.50;;;;;;;7.31;99.84;99899.81;4956113;29;20476;-92
2022/12/30 13:18:55;;;;;;;6.90;1.85;;;;;;;7.44;99.32;99888.38;4956345;29;20086;-89
2022/12/30 13:21:24;;;;;;;6.63;2.00;;;;;;;7.35;100.00;99886.81;4956156;29;20110;-92
2022/12/30 13:23:58;;;;;;;7.88;2.13;;;;;;;7.47;99.32;99862.50;4956089;29;20042;-93
2022/12/30 13:26:30;;;;;;;3.45;1.70;;;;;;;7.40;100.00;99850.59;4960806;29;20171;-96
2022/12/30 13:29:00;;;;;;;5.40;2.03;;;;;;;7.35;100.00;99844.66;4957668;29;20413;-96
2022/12/30 13:31:38;;;;;;;8.93;2.05;;;;;;;7.46;100.00;99842.72;4957940;29;20106;-95
2022/12/30 13:37:35;;;;;;;4.03;1.70;;;;;;;7.40;100.00;99832.53;4948226;29;20127;-94
2022/12/30 13:40:06;;;;;;;5.60;1.95;;;;;;;7.36;100.00;99824.00;4938431;29;20035;-95
2022/12/30 13:45:43;;;;;;;4.30;1.55;;;;;;;7.28;100.00;99799.19;4939822;29;20106;-96
2022/12/30 13:48:22;;;;;;;7.05;2.10;;;;;;;7.44;100.00;99810.91;4939264;29;20087;-96
2022/12/30 13:51:16;;;;;;;6.75;2.10;;;;;;;7.45;100.00;99791.13;4949231;29;20038;-96
2022/12/30 13:53:46;;;;;;;3.90;1.70;;;;;;;7.33;100.00;99802.53;4939606;29;20083;-96
2022/12/30 13:56:40;;;;;;;6.20;1.83;;;;;;;7.30;100.00;99795.69;4940202;29;20057;-95
2022/12/30 13:59:24;;;;;;;5.22;1.85;;;;;;;7.24;100.00;99773.44;4949030;29;20019;-96
2022/12/30 14:01:50;;;;;;;4.75;1.70;;;;;;;7.32;100.00;99757.81;4964222;29;20024;-96
2022/12/30 14:04:15;;;;;;;3.40;1.90;;;;;;;7.39;100.00;99763.69;4950760;29;20039;-89
2022/12/30 14:10:20;;;;;;;5.03;1.88;;;;;;;7.20;100.00;99758.91;4953233;29;20043;-94
2022/12/30 14:13:05;;;;;;;5.05;1.67;;;;;;;7.34;100.00;99762.91;4956757;29;20034;-96
2022/12/30 14:18:33;;;;;;;2.15;1.70;;;;;;;7.22;100.00;99769.19;4987593;23;20073;-96
2022/12/30 14:21:39;;;;;;;4.97;1.83;;;;;;;7.30;100.00;99750.97;4981287;28;20124;-95
2022/12/30 14:24:30;;;;;;;3.63;1.75;;;;;;;7.22;100.00;99735.63;4979045;28;20039;-96
2022/12/30 14:26:57;;;;;;;4.03;1.58;;;;;;;7.33;100.00;99744.03;4978606;28;20034;-94